Time;durP1;ratioP1;P1;durP2;ratioP2;P2;SDS_P1;SDS_P2;PMS_P1;PMS_P2;Temp;Humidity;BMP_temperature;BMP_pressure;BME280_temperature;BME280_humidity;BME280_pressure;Samples;Min_cycle;Max_cycle;Signal;HPM_P1;HPM_P2
2022/09/05 00:00:06;;;;;;;2.22;1.33;;;;;;;19.56;56.43;101854.88;6223171;28;20049;-73
2022/09/05 00:03:17;;;;;;;3.67;1.27;;;;;;;19.54;56.48;101857.66;6224562;28;20420;-73
2022/09/05 00:06:20;;;;;;;1.65;1.40;;;;;;;19.52;56.04;101854.25;6223923;28;20053;-73
2022/09/05 00:09:30;;;;;;;1.77;1.35;;;;;;;19.52;56.45;101852.44;6223807;28;20056;-73
2022/09/05 00:12:34;;;;;;;2.03;1.25;;;;;;;19.48;56.42;101848.31;6223805;28;20501;-74
2022/09/05 00:15:46;;;;;;;1.42;1.27;;;;;;;19.49;56.31;101855.34;6223075;28;20050;-73
2022/09/05 00:19:01;;;;;;;1.35;1.13;;;;;;;19.48;56.12;101856.31;6223821;28;20045;-73
2022/09/05 00:22:18;;;;;;;2.92;1.10;;;;;;;19.45;56.20;101863.69;6223097;28;20065;-73
2022/09/05 00:25:40;;;;;;;1.17;1.08;;;;;;;19.46;55.94;101863.56;6222867;28;20055;-73
2022/09/05 00:28:53;;;;;;;1.33;1.10;;;;;;;19.44;56.10;101857.50;6223604;28;20050;-73
2022/09/05 00:32:03;;;;;;;1.90;1.27;;;;;;;19.44;55.49;101861.94;6223546;28;20509;-73
2022/09/05 00:35:31;;;;;;;2.30;1.10;;;;;;;19.38;55.94;101857.94;6222897;28;20395;-73
2022/09/05 00:38:33;;;;;;;1.38;0.95;;;;;;;19.32;55.69;101855.72;6223576;28;20046;-73
2022/09/05 00:41:34;;;;;;;1.48;1.27;;;;;;;19.25;56.10;101857.97;6222972;28;20046;-73
2022/09/05 00:44:49;;;;;;;2.00;1.38;;;;;;;19.25;56.81;101857.09;6222936;28;20077;-73
2022/09/05 00:47:58;;;;;;;1.98;1.30;;;;;;;19.22;56.16;101854.69;6224045;28;20096;-73
2022/09/05 00:51:08;;;;;;;1.50;1.40;;;;;;;19.19;56.08;101855.75;6222947;28;20046;-73
2022/09/05 00:54:24;;;;;;;1.23;1.10;;;;;;;19.20;56.53;101859.25;6222405;28;20490;-73
2022/09/05 00:57:38;;;;;;;3.75;1.35;;;;;;;19.14;56.02;101860.56;6223118;28;20050;-73
2022/09/05 01:00:51;;;;;;;4.57;2.05;;;;;;;19.11;56.50;101860.78;6226415;28;20057;-73
2022/09/05 01:04:21;;;;;;;2.05;1.13;;;;;;;19.08;56.66;101853.00;6227464;28;20050;-73
2022/09/05 01:07:37;;;;;;;2.30;1.38;;;;;;;19.09;56.53;101860.03;6228041;28;20049;-73
2022/09/05 01:10:46;;;;;;;3.00;1.50;;;;;;;19.02;56.74;101853.44;6227681;28;20490;-73
2022/09/05 01:13:55;;;;;;;1.85;0.90;;;;;;;18.97;56.60;101856.41;6227334;28;20425;-73
2022/09/05 01:17:23;;;;;;;5.45;1.23;;;;;;;18.97;57.14;101853.75;6227593;28;20057;-73
2022/09/05 01:20:36;;;;;;;3.45;1.60;;;;;;;18.93;56.68;101857.59;6227346;28;20391;-73
2022/09/05 01:23:49;;;;;;;1.23;1.00;;;;;;;18.89;56.85;101844.59;6227449;28;20045;-73
2022/09/05 01:27:28;;;;;;;2.55;1.30;;;;;;;18.90;57.14;101846.34;6227263;28;20533;-73
2022/09/05 01:30:39;;;;;;;2.53;1.20;;;;;;;18.84;57.52;101844.09;6226366;28;20438;-73
2022/09/05 01:33:46;;;;;;;2.90;1.40;;;;;;;18.83;56.95;101853.88;6222180;28;20042;-74
2022/09/05 01:37:02;;;;;;;1.98;1.15;;;;;;;18.82;57.28;101849.53;6226190;28;20053;-73
2022/09/05 01:40:17;;;;;;;2.80;0.98;;;;;;;18.77;57.14;101849.00;6226382;28;20042;-73
2022/09/05 01:43:44;;;;;;;1.27;1.00;;;;;;;18.75;57.30;101853.56;6226460;28;20072;-73
2022/09/05 01:46:59;;;;;;;4.68;1.20;;;;;;;18.72;57.36;101851.16;6227156;28;20064;-73
2022/09/05 01:50:13;;;;;;;1.25;1.10;;;;;;;18.70;57.74;101847.72;6226742;28;20053;-73
2022/09/05 01:53:31;;;;;;;2.78;1.52;;;;;;;18.66;57.64;101843.53;6225230;28;20705;-73
2022/09/05 01:56:45;;;;;;;2.55;1.50;;;;;;;18.64;57.94;101840.13;6224712;28;20060;-73
2022/09/05 01:59:54;;;;;;;2.05;1.10;;;;;;;18.60;57.86;101847.47;6224357;28;20057;-73
2022/09/05 02:03:08;;;;;;;2.33;1.35;;;;;;;18.53;58.37;101846.22;6222893;28;20041;-73
2022/09/05 02:06:30;;;;;;;3.90;1.40;;;;;;;18.50;58.12;101847.28;6224741;28;20050;-73
2022/09/05 02:09:49;;;;;;;1.98;1.27;;;;;;;18.49;57.86;101850.91;6222725;28;20042;-73
2022/09/05 02:12:57;;;;;;;2.15;1.13;;;;;;;18.50;58.04;101836.63;6222370;28;20731;-73
2022/09/05 02:16:05;;;;;;;1.20;1.05;;;;;;;18.48;58.59;101837.66;6224926;28;20049;-73
2022/09/05 02:19:16;;;;;;;1.65;1.25;;;;;;;18.46;58.60;101839.59;6226031;28;20045;-73
2022/09/05 02:22:22;;;;;;;5.75;1.50;;;;;;;18.42;58.83;101844.28;6225647;28;20053;-73
2022/09/05 02:25:27;;;;;;;3.17;1.40;;;;;;;18.39;58.66;101844.47;6225826;28;20085;-73
2022/09/05 02:28:36;;;;;;;1.55;1.23;;;;;;;18.39;58.68;101839.16;6227055;28;20054;-73
2022/09/05 02:31:41;;;;;;;;;;;;;;;18.38;58.42;101842.78;6226287;28;20049;-73
2022/09/05 02:34:54;;;;;;;2.15;1.10;;;;;;;18.36;59.21;101831.41;6225597;28;20340;-73
2022/09/05 02:38:02;;;;;;;1.52;1.17;;;;;;;18.35;58.88;101832.38;6225940;28;20050;-73
2022/09/05 02:41:12;;;;;;;2.85;1.15;;;;;;;18.29;58.96;101837.25;6225965;28;20053;-73
2022/09/05 02:44:21;;;;;;;1.40;1.27;;;;;;;18.29;58.82;101831.91;6225388;28;20057;-73
2022/09/05 02:47:27;;;;;;;;;;;;;;;18.28;59.01;101833.72;6226291;28;20057;-72
2022/09/05 02:50:42;;;;;;;1.38;1.10;;;;;;;18.25;59.10;101825.94;6225601;28;19950;-73
2022/09/05 02:53:48;;;;;;;1.77;1.15;;;;;;;18.24;59.05;101827.75;6224803;28;20056;-73
2022/09/05 02:56:56;;;;;;;1.75;1.10;;;;;;;18.24;59.16;101835.75;6225860;28;20060;-73
2022/09/05 03:00:07;;;;;;;7.40;1.38;;;;;;;18.22;59.30;101829.69;6224806;28;20403;-73
2022/09/05 03:03:26;;;;;;;1.30;0.90;;;;;;;18.20;59.55;101825.41;6225434;28;20075;-73
2022/09/05 03:06:34;;;;;;;1.92;1.35;;;;;;;18.22;59.40;101829.69;6224909;28;20053;-73
2022/09/05 03:09:48;;;;;;;1.10;1.00;;;;;;;18.15;59.39;101824.88;6225069;28;20413;-73
2022/09/05 03:13:14;;;;;;;1.88;1.52;;;;;;;18.14;59.58;101826.69;6225327;28;20053;-74
2022/09/05 03:16:51;;;;;;;2.72;1.45;;;;;;;18.11;59.58;101826.03;6223376;28;20050;-73
2022/09/05 03:20:15;;;;;;;2.15;1.48;;;;;;;18.08;59.70;101821.81;6224617;28;20061;-73
2022/09/05 03:23:38;;;;;;;3.03;1.20;;;;;;;18.06;59.82;101830.81;6223977;28;20053;-73
2022/09/05 03:27:08;;;;;;;2.03;1.23;;;;;;;18.00;60.12;101830.28;6224644;28;20453;-73
2022/09/05 03:30:14;;;;;;;2.33;1.10;;;;;;;17.97;60.52;101834.94;6224428;28;20046;-73
2022/09/05 03:33:35;;;;;;;1.63;1.33;;;;;;;17.96;60.11;101833.25;6224895;28;20703;-73
2022/09/05 03:37:02;;;;;;;2.72;1.13;;;;;;;17.94;60.56;101838.69;6223709;28;20049;-73
2022/09/05 03:40:33;;;;;;;2.03;1.33;;;;;;;17.89;61.06;101834.59;6224272;28;20417;-73
2022/09/05 03:43:51;;;;;;;2.08;1.15;;;;;;;17.87;60.68;101847.16;6224962;28;20517;-74
2022/09/05 03:47:09;;;;;;;2.50;1.42;;;;;;;17.84;60.67;101840.22;6224733;28;20054;-73
2022/09/05 03:50:27;;;;;;;1.73;1.23;;;;;;;17.86;61.11;101843.66;6224172;28;20050;-73
2022/09/05 03:53:51;;;;;;;2.30;1.52;;;;;;;17.83;61.05;101843.84;6224293;28;20050;-73
2022/09/05 03:57:11;;;;;;;2.47;1.15;;;;;;;17.84;61.02;101840.22;6224104;28;20472;-73
2022/09/05 04:00:21;;;;;;;1.52;1.40;;;;;;;17.83;60.96;101840.34;6223902;28;20061;-73
2022/09/05 04:03:24;;;;;;;;;;;;;;;17.79;61.93;101839.69;6224365;28;20046;-73
2022/09/05 04:06:33;;;;;;;1.73;1.30;;;;;;;17.77;61.34;101844.28;6223712;28;19928;-73
2022/09/05 04:09:44;;;;;;;1.20;1.08;;;;;;;17.73;61.23;101843.63;6223939;28;20537;-73
2022/09/05 04:12:52;;;;;;;2.72;1.15;;;;;;;17.71;61.97;101849.94;6223958;28;20406;-73
2022/09/05 04:16:05;;;;;;;3.60;1.40;;;;;;;17.73;61.90;101846.28;6223403;28;20054;-73
2022/09/05 04:19:13;;;;;;;1.27;1.10;;;;;;;17.77;61.75;101854.06;6223634;28;20058;-73
2022/09/05 04:22:19;;;;;;;3.05;1.33;;;;;;;17.74;62.03;101857.75;6223207;28;20045;-74
2022/09/05 04:25:29;;;;;;;1.25;1.10;;;;;;;17.70;62.14;101856.22;6222751;28;20056;-73
2022/09/05 04:28:43;;;;;;;2.35;0.93;;;;;;;17.70;62.32;101858.88;6223326;28;20541;-73
2022/09/05 04:31:54;;;;;;;1.98;1.40;;;;;;;17.72;62.64;101857.84;6222992;28;20528;-73
2022/09/05 04:35:18;;;;;;;1.90;1.42;;;;;;;17.71;62.54;101855.25;6221925;28;20100;-74
2022/09/05 04:38:35;;;;;;;3.20;1.35;;;;;;;17.66;62.63;101860.88;6209987;28;20056;-73
2022/09/05 04:41:42;;;;;;;3.53;1.38;;;;;;;17.65;62.63;101858.31;6222384;28;20049;-73
2022/09/05 04:44:51;;;;;;;1.85;1.45;;;;;;;17.65;62.97;101858.31;6222446;28;20046;-73
2022/09/05 04:47:55;;;;;;;1.52;1.17;;;;;;;17.65;63.13;101867.16;6222881;28;20057;-73
2022/09/05 04:51:04;;;;;;;2.15;1.58;;;;;;;17.65;62.71;101875.13;6222193;28;20046;-73
2022/09/05 04:54:21;;;;;;;1.83;1.02;;;;;;;17.65;63.39;101869.81;6222419;28;20045;-74
2022/09/05 04:57:27;;;;;;;2.33;1.35;;;;;;;17.67;63.53;101883.03;6222382;28;20054;-73
2022/09/05 05:00:37;;;;;;;3.90;1.35;;;;;;;17.67;63.66;101883.88;6222396;28;20056;-73
2022/09/05 05:03:39;;;;;;;1.83;1.17;;;;;;;17.71;63.12;101879.19;6222361;28;20054;-73
2022/09/05 05:06:49;;;;;;;3.33;1.75;;;;;;;17.74;63.74;101889.66;6222962;28;20054;-73
2022/09/05 05:09:56;;;;;;;1.95;1.20;;;;;;;17.75;63.60;101886.03;6222054;28;20050;-73
2022/09/05 05:13:07;;;;;;;2.63;1.55;;;;;;;17.76;63.81;101898.41;6222190;28;20053;-73
2022/09/05 05:16:17;;;;;;;3.80;1.60;;;;;;;17.77;63.91;101897.44;6222866;28;20065;-72
2022/09/05 05:19:26;;;;;;;1.92;1.30;;;;;;;17.80;63.81;101901.69;6223198;28;20057;-72
2022/09/05 05:22:28;;;;;;;3.42;1.48;;;;;;;17.84;63.47;101909.38;6221953;28;20050;-72
2022/09/05 05:25:32;;;;;;;2.50;1.42;;;;;;;17.84;63.52;101892.56;6222345;28;20046;-72
2022/09/05 05:28:47;;;;;;;11.25;2.05;;;;;;;17.85;63.72;101894.25;6222093;28;20061;-72
2022/09/05 05:31:53;;;;;;;2.92;1.55;;;;;;;17.86;63.90;101896.00;6222090;28;20054;-72
2022/09/05 05:34:58;;;;;;;4.10;1.60;;;;;;;17.87;63.72;101908.34;6221110;28;20045;-72
2022/09/05 05:38:13;;;;;;;1.75;1.20;;;;;;;17.87;63.57;101911.84;6220328;28;20057;-72
2022/09/05 05:41:20;;;;;;;1.98;1.50;;;;;;;17.85;64.27;101911.09;6217387;28;20042;-72
2022/09/05 05:44:27;;;;;;;2.60;1.55;;;;;;;17.89;64.04;101899.28;6219899;28;20053;-72
2022/09/05 05:47:35;;;;;;;2.50;1.63;;;;;;;17.91;64.31;101912.50;6223395;28;20050;-72
2022/09/05 05:50:49;;;;;;;6.00;1.63;;;;;;;17.93;64.32;101908.78;6224350;28;20409;-72
2022/09/05 05:54:00;;;;;;;3.92;1.52;;;;;;;17.94;64.70;101917.59;6223905;28;20053;-72
2022/09/05 05:57:27;;;;;;;3.55;1.80;;;;;;;17.97;64.48;101920.91;6220564;28;20413;-72
2022/09/05 06:00:43;;;;;;;3.42;2.10;;;;;;;18.01;65.03;101918.91;6220935;28;20046;-72
2022/09/05 06:04:14;;;;;;;2.70;1.48;;;;;;;18.06;64.57;101930.09;6223089;28;20049;-72
2022/09/05 06:07:27;;;;;;;2.75;1.60;;;;;;;18.12;64.52;101923.50;6222325;28;20046;-72
2022/09/05 06:10:53;;;;;;;4.05;1.63;;;;;;;18.13;64.67;101928.75;6223790;28;20390;-72
2022/09/05 06:14:40;;;;;;;1.80;1.20;;;;;;;18.17;64.96;101924.94;6221370;28;20053;-72
2022/09/05 06:18:15;;;;;;;1.95;1.38;;;;;;;18.21;65.11;101920.25;6223426;28;20049;-73
2022/09/05 06:21:39;;;;;;;4.25;1.65;;;;;;;18.27;64.78;101924.31;6225228;28;20054;-72
2022/09/05 06:25:05;;;;;;;2.08;1.50;;;;;;;18.25;64.83;101924.41;6225117;28;20486;-72
2022/09/05 06:28:16;;;;;;;2.45;1.63;;;;;;;18.21;64.63;101923.78;6225672;28;20506;-72
2022/09/05 06:31:37;;;;;;;1.70;1.60;;;;;;;18.19;65.42;101922.16;6225132;28;20049;-72
2022/09/05 06:35:00;;;;;;;2.40;1.52;;;;;;;18.18;65.68;101931.97;6225062;28;20045;-72
2022/09/05 06:38:31;;;;;;;2.22;1.60;;;;;;;18.19;65.72;101933.66;6225410;28;20049;-73
2022/09/05 06:41:43;;;;;;;4.22;1.50;;;;;;;18.20;66.17;101931.84;6224702;28;20053;-72
2022/09/05 06:45:02;;;;;;;2.83;1.80;;;;;;;18.20;66.27;101930.03;6224536;28;20064;-72
2022/09/05 06:48:12;;;;;;;4.13;2.15;;;;;;;18.24;65.88;101928.03;6224731;28;20045;-72
2022/09/05 06:51:37;;;;;;;2.38;1.58;;;;;;;18.25;66.22;101927.91;6224408;28;20057;-73
2022/09/05 06:55:21;;;;;;;2.10;1.65;;;;;;;18.31;66.54;101925.81;6221250;28;20045;-72
2022/09/05 06:58:54;;;;;;;2.95;1.90;;;;;;;18.38;66.14;101925.28;6195756;28;20057;-72
2022/09/05 07:02:07;;;;;;;2.28;1.70;;;;;;;18.35;66.17;101925.53;6223954;28;20057;-72
2022/09/05 07:05:29;;;;;;;4.53;1.85;;;;;;;18.42;66.34;101924.13;6223962;28;20410;-72
2022/09/05 07:08:46;;;;;;;3.50;2.03;;;;;;;18.44;66.50;101921.34;6224151;28;20061;-72
2022/09/05 07:11:58;;;;;;;2.38;1.75;;;;;;;18.42;66.74;101929.47;6223759;28;20125;-72
2022/09/05 07:15:11;;;;;;;2.65;1.83;;;;;;;18.48;67.03;101936.16;6223218;28;20049;-71
2022/09/05 07:18:22;;;;;;;2.75;1.55;;;;;;;18.56;66.99;101938.31;6223813;28;20133;-72
2022/09/05 07:21:31;;;;;;;2.25;1.70;;;;;;;18.67;66.97;101943.78;6223263;28;20057;-72
2022/09/05 07:24:37;;;;;;;3.58;1.88;;;;;;;18.75;66.40;101942.31;6223219;28;20049;-72
2022/09/05 07:27:47;;;;;;;1.77;1.40;;;;;;;18.82;66.63;101936.56;6223460;28;20049;-72
2022/09/05 07:30:54;;;;;;;3.92;1.80;;;;;;;18.96;66.02;101941.78;6223437;28;20053;-72
2022/09/05 07:34:08;;;;;;;3.58;2.08;;;;;;;19.04;66.17;101950.09;6222997;28;20061;-72
2022/09/05 07:37:16;;;;;;;3.17;1.60;;;;;;;19.10;65.94;101948.81;6223578;28;20050;-72
2022/09/05 07:40:22;;;;;;;3.05;2.05;;;;;;;19.14;65.62;101951.16;6223098;28;20045;-72
2022/09/05 07:43:29;;;;;;;2.90;1.75;;;;;;;19.20;65.84;101958.72;6223333;28;20443;-72
2022/09/05 07:46:32;;;;;;;4.15;1.80;;;;;;;19.23;65.44;101965.66;6222922;28;20129;-72
2022/09/05 07:49:36;;;;;;;3.50;1.77;;;;;;;19.23;65.41;101963.00;6223035;28;20046;-72
2022/09/05 07:52:40;;;;;;;2.42;1.85;;;;;;;19.28;65.52;101963.50;6222375;28;20054;-72
2022/09/05 07:55:41;;;;;;;2.85;1.90;;;;;;;19.32;65.13;101961.50;6222698;28;20136;-72
2022/09/05 07:58:49;;;;;;;2.85;1.70;;;;;;;19.35;65.43;101967.47;6222912;28;20054;-72
2022/09/05 08:01:53;;;;;;;4.82;1.85;;;;;;;19.36;65.02;101958.50;6222652;28;20060;-72
2022/09/05 08:05:02;;;;;;;2.85;1.70;;;;;;;19.43;64.98;101959.75;6222317;28;20046;-72
2022/09/05 08:08:08;;;;;;;3.33;1.90;;;;;;;19.40;64.93;101959.13;6222768;28;20045;-72
2022/09/05 08:11:13;;;;;;;4.00;1.80;;;;;;;19.44;65.21;101963.25;6221963;28;20057;-72
2022/09/05 08:14:24;;;;;;;4.57;1.95;;;;;;;19.50;64.78;101962.84;6222290;28;20050;-72
2022/09/05 08:17:26;;;;;;;4.10;1.83;;;;;;;19.59;64.88;101964.84;6222636;28;20067;-72
2022/09/05 08:20:32;;;;;;;3.50;1.85;;;;;;;19.67;64.45;101965.19;6222385;28;20046;-72
2022/09/05 08:23:48;;;;;;;2.78;2.15;;;;;;;19.84;63.82;101955.94;6249398;23;20044;-75
2022/09/05 08:26:59;;;;;;;3.45;2.20;;;;;;;19.91;63.95;101959.88;6292199;28;20059;-75
2022/09/05 08:30:06;;;;;;;3.03;1.60;;;;;;;20.00;64.26;101951.19;6275448;28;20518;-74
2022/09/05 08:33:14;;;;;;;5.82;2.20;;;;;;;20.06;63.95;101957.88;6282398;28;20048;-74
2022/09/05 08:36:26;;;;;;;2.72;1.70;;;;;;;20.10;64.17;101953.19;6295989;28;20048;-75
2022/09/05 08:39:28;;;;;;;3.22;2.00;;;;;;;20.17;63.63;101960.63;6296262;28;20052;-75
2022/09/05 08:42:38;;;;;;;5.63;1.90;;;;;;;20.24;63.29;101948.50;6295773;28;20127;-74
2022/09/05 08:45:50;;;;;;;3.22;1.75;;;;;;;20.25;63.47;101947.53;6295759;28;20041;-74
2022/09/05 08:49:10;;;;;;;2.55;1.83;;;;;;;20.29;64.25;101945.50;6296386;28;20060;-74
2022/09/05 08:52:23;;;;;;;3.40;1.88;;;;;;;20.28;63.33;101939.31;6295806;28;20054;-74
2022/09/05 08:55:38;;;;;;;1.77;1.45;;;;;;;20.29;63.80;101940.16;6295831;28;20051;-74
2022/09/05 08:58:52;;;;;;;2.47;1.80;;;;;;;20.32;64.31;101942.59;6296177;28;20071;-72
2022/09/05 09:02:31;;;;;;;2.70;1.90;;;;;;;20.37;63.69;101945.78;6295905;28;20052;-74
2022/09/05 09:06:12;;;;;;;2.50;2.03;;;;;;;20.46;63.34;101933.53;6295105;28;20044;-75
2022/09/05 09:09:17;;;;;;;5.68;2.08;;;;;;;20.50;63.05;101935.88;6295814;28;20055;-75
2022/09/05 09:12:55;;;;;;;3.08;1.55;;;;;;;20.59;63.10;101937.00;6295633;28;20435;-74
2022/09/05 09:16:05;;;;;;;11.43;2.10;;;;;;;20.67;62.75;101933.75;6295562;28;20131;-73
2022/09/05 09:19:12;;;;;;;7.53;1.83;;;;;;;20.72;62.92;101929.75;6295743;28;20502;-73
2022/09/05 09:22:25;;;;;;;3.60;1.73;;;;;;;20.88;62.28;101929.41;6298566;28;20060;-73
2022/09/05 09:25:30;;;;;;;5.85;2.13;;;;;;;20.94;62.22;101917.41;6300062;28;20052;-72
2022/09/05 09:28:44;;;;;;;4.75;2.13;;;;;;;21.00;61.97;101925.78;6300493;28;20059;-73
2022/09/05 09:31:59;;;;;;;2.08;1.85;;;;;;;20.98;61.60;101918.84;6299688;28;20060;-72
2022/09/05 09:35:09;;;;;;;3.95;1.92;;;;;;;21.13;61.63;101925.66;6299922;28;20056;-74
2022/09/05 09:38:27;;;;;;;2.30;1.70;;;;;;;21.17;61.83;101921.78;6300211;28;20052;-72
2022/09/05 09:41:47;;;;;;;4.07;2.13;;;;;;;21.26;60.88;101926.41;6299926;28;20055;-73
2022/09/05 09:45:20;;;;;;;4.03;2.10;;;;;;;21.29;61.04;101925.28;6299439;28;20044;-72
2022/09/05 09:48:54;;;;;;;4.03;2.20;;;;;;;21.35;61.06;101911.47;6299945;28;20052;-72
2022/09/05 09:52:18;;;;;;;3.58;1.92;;;;;;;21.40;61.19;101917.28;6299538;28;20060;-72
2022/09/05 09:55:45;;;;;;;4.07;2.28;;;;;;;21.48;61.48;101916.66;6299137;28;20047;-72
2022/09/05 09:59:04;;;;;;;2.58;2.10;;;;;;;21.48;61.90;101913.97;6299747;28;20139;-72
2022/09/05 10:02:24;;;;;;;2.88;1.80;;;;;;;21.50;61.13;101917.41;6299586;28;20048;-72
2022/09/05 10:05:44;;;;;;;1.90;1.63;;;;;;;21.61;61.05;101919.19;6299039;28;20048;-72
2022/09/05 10:08:58;;;;;;;;;;;;;;;21.78;61.02;101910.63;6299868;28;20053;-72
2022/09/05 10:12:47;;;;;;;2.63;1.83;;;;;;;21.91;60.29;101889.06;6299053;28;20390;-71
2022/09/05 10:16:09;;;;;;;;;;;;;;;22.10;59.81;101896.41;6299227;28;20563;-74
2022/09/05 10:19:36;;;;;;;6.53;2.20;;;;;;;22.33;58.75;101890.00;6299251;28;20349;-72
2022/09/05 10:22:57;;;;;;;2.95;1.80;;;;;;;22.53;58.09;101877.59;6299238;28;20052;-72
2022/09/05 10:26:28;;;;;;;2.60;1.95;;;;;;;22.60;58.30;101869.84;6298721;28;20048;-74
2022/09/05 10:29:49;;;;;;;2.28;1.98;;;;;;;22.67;58.55;101866.53;6299314;28;20063;-73
2022/09/05 10:33:15;;;;;;;4.30;2.10;;;;;;;22.79;58.02;101862.75;6298368;28;20051;-72
2022/09/05 10:36:23;;;;;;;2.80;1.83;;;;;;;22.89;58.57;101853.91;6298535;28;20507;-71
2022/09/05 10:39:27;;;;;;;3.65;2.20;;;;;;;22.99;57.93;101869.09;6298952;28;20515;-72
2022/09/05 10:42:36;;;;;;;3.28;2.00;;;;;;;23.21;57.11;101851.06;6298332;28;20455;-72
2022/09/05 10:45:47;;;;;;;2.00;1.57;;;;;;;23.41;56.99;101852.00;6298404;28;20137;-72
2022/09/05 10:48:53;;;;;;;2.78;1.70;;;;;;;23.65;56.48;101854.31;6298972;28;20434;-71
2022/09/05 10:52:01;;;;;;;2.92;2.05;;;;;;;23.85;54.95;101849.81;6298167;28;20075;-71
2022/09/05 10:55:17;;;;;;;2.85;1.90;;;;;;;23.91;54.28;101854.59;6297758;28;20049;-71
2022/09/05 10:58:43;;;;;;;2.75;1.63;;;;;;;23.98;54.09;101851.22;6298647;28;20052;-71
2022/09/05 11:01:57;;;;;;;2.45;1.77;;;;;;;24.15;53.14;101846.94;6297769;28;20056;-71
2022/09/05 11:05:08;;;;;;;6.85;2.35;;;;;;;24.36;52.68;101846.78;6297867;28;20044;-72
2022/09/05 11:08:18;;;;;;;2.30;1.70;;;;;;;24.41;52.59;101838.31;6298108;28;20072;-71
2022/09/05 11:11:23;;;;;;;1.42;1.33;;;;;;;24.62;51.82;101832.72;6297644;28;20056;-72
2022/09/05 11:14:40;;;;;;;2.33;1.58;;;;;;;24.70;52.03;101830.13;6297459;28;20415;-71
2022/09/05 11:17:53;;;;;;;3.17;1.73;;;;;;;24.79;52.27;101831.94;6297962;28;20048;-72
2022/09/05 11:21:04;;;;;;;4.15;1.70;;;;;;;25.10;50.97;101834.38;6297655;28;20522;-72
2022/09/05 11:24:15;;;;;;;4.82;1.58;;;;;;;25.37;50.44;101830.81;6297275;28;20059;-72
2022/09/05 11:27:25;;;;;;;4.53;1.60;;;;;;;25.67;48.98;101824.22;6297658;28;20407;-73
2022/09/05 11:30:32;;;;;;;3.35;1.50;;;;;;;25.84;49.16;101814.47;6297449;28;20727;-74
2022/09/05 11:33:58;;;;;;;2.72;1.60;;;;;;;26.00;47.90;101811.91;6297756;28;20052;-72
2022/09/05 11:37:02;;;;;;;1.70;1.38;;;;;;;26.33;47.37;101817.53;6248933;28;20487;-72
2022/09/05 11:40:30;;;;;;;1.98;1.40;;;;;;;26.60;47.13;101809.28;6297141;28;20048;-73
2022/09/05 11:44:08;;;;;;;1.60;1.10;;;;;;;26.92;45.40;101805.88;6295928;28;20059;-72
2022/09/05 11:48:11;;;;;;;2.35;1.70;;;;;;;27.17;44.62;101793.34;6297147;28;20052;-73
2022/09/05 11:51:45;;;;;;;2.13;1.55;;;;;;;27.43;43.87;101804.00;6296697;28;20048;-71
2022/09/05 11:55:13;;;;;;;2.70;1.60;;;;;;;27.63;43.48;101795.63;6296709;28;20052;-72
2022/09/05 11:58:47;;;;;;;1.35;1.20;;;;;;;27.75;43.27;101794.28;6296812;28;20086;-72
2022/09/05 12:02:04;;;;;;;1.35;1.25;;;;;;;28.01;42.50;101799.50;6296439;28;20059;-72
2022/09/05 12:05:33;;;;;;;3.03;1.60;;;;;;;28.20;41.60;101787.47;6296513;28;20060;-72
2022/09/05 12:08:39;;;;;;;3.50;1.70;;;;;;;28.37;40.81;101797.28;6296740;28;20049;-72
2022/09/05 12:11:55;;;;;;;1.95;1.23;;;;;;;28.32;40.84;101796.91;6296410;28;20050;-72
2022/09/05 12:15:09;;;;;;;1.25;1.10;;;;;;;28.44;40.02;101792.88;6296150;28;20518;-72
2022/09/05 12:18:19;;;;;;;1.23;1.00;;;;;;;28.60;40.16;101788.41;6296621;28;20051;-72
2022/09/05 12:21:30;;;;;;;3.05;1.30;;;;;;;28.66;39.84;101787.69;6296408;28;20060;-72
2022/09/05 12:24:42;;;;;;;5.70;1.30;;;;;;;28.81;40.63;101784.09;6295909;28;20048;-73
2022/09/05 12:27:47;;;;;;;0.95;0.93;;;;;;;29.02;39.30;101772.69;6296397;28;20045;-72
2022/09/05 12:30:49;;;;;;;2.03;1.35;;;;;;;29.24;39.07;101772.88;6295982;28;20056;-73
2022/09/05 12:33:51;;;;;;;1.15;1.05;;;;;;;29.21;38.93;101774.09;6296134;28;20048;-71
2022/09/05 12:36:56;;;;;;;1.40;1.27;;;;;;;29.36;38.14;101765.19;6296264;28;20048;-72
2022/09/05 12:40:08;;;;;;;1.45;1.27;;;;;;;29.33;38.12;101755.56;6295905;28;20059;-72
2022/09/05 12:43:11;;;;;;;1.58;1.20;;;;;;;29.48;38.14;101750.22;6296289;28;20044;-72
2022/09/05 12:46:20;;;;;;;1.42;1.25;;;;;;;29.55;37.76;101745.78;6296092;28;20040;-74
2022/09/05 12:49:33;;;;;;;2.30;1.33;;;;;;;29.58;37.33;101740.00;6296310;28;20048;-73
2022/09/05 12:52:42;;;;;;;2.60;1.80;;;;;;;29.49;38.11;101739.19;6295851;28;20059;-72
2022/09/05 12:55:51;;;;;;;1.20;1.10;;;;;;;29.71;37.71;101737.50;6297932;28;20412;-72
2022/09/05 12:58:54;;;;;;;1.83;1.30;;;;;;;29.78;37.81;101735.72;6301317;28;20055;-72
2022/09/05 13:02:02;;;;;;;3.08;1.65;;;;;;;29.76;37.02;101723.41;6300745;28;20051;-72
2022/09/05 13:05:11;;;;;;;2.47;1.48;;;;;;;29.87;37.30;101724.81;6300855;28;20051;-74
2022/09/05 13:08:20;;;;;;;1.33;1.20;;;;;;;29.93;37.08;101721.34;6300972;28;20048;-74
2022/09/05 13:11:24;;;;;;;2.20;1.30;;;;;;;30.14;36.96;101715.22;6300770;28;20392;-74
2022/09/05 13:14:31;;;;;;;1.20;1.10;;;;;;;30.51;36.74;101715.09;6300336;28;20056;-74
2022/09/05 13:17:38;;;;;;;1.90;1.10;;;;;;;30.83;35.46;101713.84;6300891;28;20048;-73
2022/09/05 13:20:49;;;;;;;1.98;1.25;;;;;;;30.95;35.27;101714.19;6300470;28;20048;-72
2022/09/05 13:24:04;;;;;;;2.70;1.13;;;;;;;30.94;33.91;101714.41;6300103;28;20053;-73
2022/09/05 13:27:13;;;;;;;1.10;1.00;;;;;;;30.94;34.63;101708.97;6300407;28;20044;-73
2022/09/05 13:30:15;;;;;;;;;;;;;;;31.10;33.90;101718.72;6300765;28;20056;-73
2022/09/05 13:33:20;;;;;;;1.45;1.27;;;;;;;31.09;33.88;101707.03;6300229;28;19939;-73
2022/09/05 13:36:27;;;;;;;2.42;0.90;;;;;;;30.97;33.54;101708.56;6299757;28;20420;-74
2022/09/05 13:39:38;;;;;;;2.25;1.30;;;;;;;30.90;34.63;101716.66;6300102;28;20135;-73
2022/09/05 13:42:44;;;;;;;4.65;1.58;;;;;;;31.09;33.95;101707.03;6300117;28;20444;-73
2022/09/05 13:46:05;;;;;;;1.83;1.42;;;;;;;31.11;33.84;101706.81;6299532;28;20393;-73
2022/09/05 13:49:17;;;;;;;2.20;1.33;;;;;;;31.15;33.18;101698.09;6299886;28;20408;-73
2022/09/05 13:52:27;;;;;;;1.45;1.20;;;;;;;31.21;33.89;101701.94;6299396;28;20488;-73
2022/09/05 13:55:37;;;;;;;2.22;1.40;;;;;;;31.05;33.28;101706.56;6299441;28;20087;-73
2022/09/05 13:58:44;;;;;;;2.15;1.67;;;;;;;31.02;33.85;101700.66;6299711;28;20052;-73
2022/09/05 14:02:01;;;;;;;1.77;1.38;;;;;;;31.17;33.14;101695.19;6299274;28;20454;-73
2022/09/05 14:05:18;;;;;;;1.40;1.00;;;;;;;31.20;33.59;101695.63;6298962;28;20056;-73
2022/09/05 14:08:34;;;;;;;1.60;1.20;;;;;;;31.39;33.37;101694.19;6298462;28;20442;-74
2022/09/05 14:11:47;;;;;;;1.38;1.20;;;;;;;31.52;33.04;101691.56;6299038;28;20048;-71
2022/09/05 14:14:57;;;;;;;1.40;1.20;;;;;;;31.45;33.19;101690.66;6298951;28;20408;-72
2022/09/05 14:18:04;;;;;;;2.30;1.35;;;;;;;31.52;33.08;101685.28;6299405;28;20045;-71
2022/09/05 14:21:15;;;;;;;3.80;1.63;;;;;;;31.70;32.64;101687.50;6298795;28;20432;-71
2022/09/05 14:24:20;;;;;;;2.13;0.98;;;;;;;31.36;32.33;101683.69;6318113;22;20048;-75
2022/09/05 14:27:23;;;;;;;1.45;1.15;;;;;;;30.79;34.15;101684.56;6299216;28;20052;-75
2022/09/05 14:30:38;;;;;;;2.58;1.13;;;;;;;30.56;34.75;101681.97;6298663;28;20686;-75
2022/09/05 14:33:58;;;;;;;1.38;1.08;;;;;;;30.95;33.61;101683.50;6299302;28;20045;-76
2022/09/05 14:37:07;;;;;;;1.30;1.20;;;;;;;31.21;33.48;101672.88;6299191;28;20181;-76
2022/09/05 14:40:19;;;;;;;1.58;1.13;;;;;;;31.28;33.03;101681.94;6298527;28;20052;-76
2022/09/05 14:43:39;;;;;;;1.70;1.25;;;;;;;31.32;33.26;101676.97;6299031;28;20048;-75
2022/09/05 14:47:03;;;;;;;2.65;1.58;;;;;;;31.23;33.11;101675.41;6299038;28;20124;-75
2022/09/05 14:50:28;;;;;;;1.50;1.20;;;;;;;31.14;33.49;101671.97;6298201;28;20071;-76
2022/09/05 14:53:30;;;;;;;3.35;1.45;;;;;;;30.69;34.85;101667.72;6298692;28;20072;-76
2022/09/05 14:56:38;;;;;;;1.13;0.95;;;;;;;30.30;34.63;101669.78;6298281;28;20044;-75
2022/09/05 14:59:42;;;;;;;1.27;1.05;;;;;;;30.06;35.01;101670.88;6298443;28;20067;-75
2022/09/05 15:02:48;;;;;;;1.80;1.38;;;;;;;29.91;35.60;101652.94;6298384;28;20055;-75